Time;durP1;ratioP1;P1;durP2;ratioP2;P2;SDS_P1;SDS_P2;PMS_P1;PMS_P2;Temp;Humidity;BMP_temperature;BMP_pressure;BME280_temperature;BME280_humidity;BME280_pressure;Samples;Min_cycle;Max_cycle;Signal;HPM_P1;HPM_P2
2023/12/27 00:01:38;;;;;;;0.50;0.50;;;;;;;2.81;100.00;99874.38;5094262;28;20063;-58
2023/12/27 00:04:05;;;;;;;0.70;0.70;;;;;;;2.88;100.00;99876.34;5092473;28;20759;-58
2023/12/27 00:06:32;;;;;;;0.50;0.50;;;;;;;2.94;100.00;99881.72;5096388;28;20676;-58
2023/12/27 00:09:00;;;;;;;0.60;0.60;;;;;;;2.77;100.00;99877.53;5090645;28;20132;-58
2023/12/27 00:11:27;;;;;;;0.60;0.60;;;;;;;2.69;100.00;99881.06;5091079;28;20052;-58
2023/12/27 00:13:55;;;;;;;0.60;0.60;;;;;;;2.86;100.00;99880.97;5091981;28;20073;-58
2023/12/27 00:16:23;;;;;;;0.60;0.60;;;;;;;2.89;100.00;99867.38;5093433;28;20136;-58
2023/12/27 00:18:50;;;;;;;0.60;0.60;;;;;;;2.80;100.00;99871.91;5093478;28;20147;-58
2023/12/27 00:21:17;;;;;;;0.55;0.55;;;;;;;2.88;100.00;99857.78;5096188;28;20044;-58
2023/12/27 00:23:44;;;;;;;0.50;0.50;;;;;;;3.06;100.00;99857.47;5096770;28;20398;-58
2023/12/27 00:26:11;;;;;;;0.60;0.60;;;;;;;3.13;100.00;99864.53;5096558;28;20478;-58
2023/12/27 00:28:40;;;;;;;0.50;0.50;;;;;;;3.03;100.00;99854.19;5093734;28;20139;-58
2023/12/27 00:31:08;;;;;;;0.40;0.40;;;;;;;3.07;100.00;99862.63;5096788;28;20040;-58
2023/12/27 00:33:35;;;;;;;0.63;0.63;;;;;;;3.00;100.00;99859.03;5093337;28;20072;-58
2023/12/27 00:36:02;;;;;;;0.60;0.60;;;;;;;3.20;100.00;99857.53;5096165;28;21002;-58
2023/12/27 00:38:29;;;;;;;0.50;0.50;;;;;;;3.20;100.00;99849.56;5077855;28;20039;-58
2023/12/27 00:40:56;;;;;;;0.52;0.52;;;;;;;2.98;100.00;99845.94;5095433;28;20051;-58
2023/12/27 00:43:23;;;;;;;0.50;0.50;;;;;;;3.06;100.00;99837.13;5098346;28;20052;-58
2023/12/27 00:45:50;;;;;;;0.40;0.40;;;;;;;3.11;100.00;99842.69;5074716;28;20051;-58
2023/12/27 00:48:18;;;;;;;0.55;0.55;;;;;;;3.03;100.00;99842.78;5092205;28;20043;-58
2023/12/27 00:50:46;;;;;;;0.50;0.50;;;;;;;3.11;100.00;99850.63;5071599;28;20040;-58
2023/12/27 00:53:13;;;;;;;0.70;0.70;;;;;;;3.07;100.00;99853.81;5075224;28;20124;-58
2023/12/27 00:55:40;;;;;;;0.60;0.60;;;;;;;3.02;100.00;99855.19;5099728;28;20557;-58
2023/12/27 00:58:07;;;;;;;0.40;0.40;;;;;;;2.95;100.00;99856.91;5097508;28;20130;-58
2023/12/27 01:00:35;;;;;;;0.50;0.50;;;;;;;3.04;100.00;99868.25;5085989;28;20067;-58
2023/12/27 01:03:02;;;;;;;0.50;0.50;;;;;;;2.99;100.00;99868.78;5098812;28;20054;-58
2023/12/27 01:05:31;;;;;;;0.50;0.50;;;;;;;2.98;100.00;99874.25;5092160;28;20046;-58
2023/12/27 01:07:58;;;;;;;0.60;0.60;;;;;;;2.94;100.00;99870.31;5094055;28;20165;-58
2023/12/27 01:10:25;;;;;;;0.52;0.52;;;;;;;3.04;100.00;99876.19;5095585;28;20071;-58
2023/12/27 01:12:55;;;;;;;0.60;0.60;;;;;;;3.07;100.00;99864.41;5071922;28;20043;-58
2023/12/27 01:15:22;;;;;;;0.50;0.50;;;;;;;3.05;100.00;99872.56;5068964;28;20052;-58
2023/12/27 01:17:49;;;;;;;0.47;0.47;;;;;;;3.02;100.00;99870.25;5077219;28;20520;-58
2023/12/27 01:20:17;;;;;;;0.50;0.50;;;;;;;3.06;100.00;99886.63;5088272;28;20051;-58
2023/12/27 01:22:47;;;;;;;0.47;0.47;;;;;;;3.30;100.00;99880.31;5091111;28;20083;-58
2023/12/27 01:25:14;;;;;;;0.55;0.55;;;;;;;3.37;100.00;99881.22;5073042;28;20058;-58
2023/12/27 01:27:41;;;;;;;0.50;0.50;;;;;;;3.61;100.00;99893.41;5096019;28;20044;-58
2023/12/27 01:30:09;;;;;;;0.40;0.40;;;;;;;3.66;100.00;99886.56;5097832;28;20566;-58
2023/12/27 01:32:36;;;;;;;0.50;0.50;;;;;;;3.50;100.00;99884.09;5072367;28;20044;-58
2023/12/27 01:35:05;;;;;;;0.40;0.40;;;;;;;3.47;100.00;99887.09;5092822;28;20050;-58
2023/12/27 01:37:33;;;;;;;0.50;0.50;;;;;;;3.49;100.00;99886.91;5083297;28;20048;-58
2023/12/27 01:40:01;;;;;;;0.50;0.50;;;;;;;3.53;100.00;99890.84;5095280;28;20110;-58
2023/12/27 01:42:28;;;;;;;0.50;0.50;;;;;;;3.50;100.00;99892.03;5092702;28;20051;-58
2023/12/27 01:44:55;;;;;;;0.60;0.60;;;;;;;3.57;100.00;99887.66;5095685;28;20050;-58
2023/12/27 01:47:22;;;;;;;0.50;0.50;;;;;;;3.62;100.00;99893.25;5091084;28;20075;-58
2023/12/27 01:49:48;;;;;;;0.40;0.40;;;;;;;3.49;100.00;99885.06;5088227;28;20100;-58
2023/12/27 01:52:15;;;;;;;0.50;0.50;;;;;;;3.56;100.00;99880.69;5091221;28;20058;-58
2023/12/27 01:54:42;;;;;;;0.50;0.50;;;;;;;3.61;100.00;99882.81;5089689;28;20043;-58
2023/12/27 01:57:11;;;;;;;0.52;0.52;;;;;;;3.59;100.00;99880.34;5097206;28;20114;-58
2023/12/27 01:59:37;;;;;;;0.50;0.50;;;;;;;3.55;100.00;99872.94;5098246;28;20131;-58
2023/12/27 02:02:04;;;;;;;0.50;0.50;;;;;;;3.57;100.00;99871.75;5074149;28;20048;-58
2023/12/27 02:04:31;;;;;;;0.52;0.52;;;;;;;3.59;100.00;99861.78;5085096;28;20309;-58
2023/12/27 02:06:58;;;;;;;0.47;0.47;;;;;;;3.64;100.00;99864.72;5089358;28;20450;-58
2023/12/27 02:09:25;;;;;;;0.50;0.50;;;;;;;3.75;100.00;99857.34;5084633;28;20421;-58
2023/12/27 02:11:53;;;;;;;0.50;0.50;;;;;;;3.90;100.00;99858.16;5099899;28;20478;-58
2023/12/27 02:14:22;;;;;;;0.40;0.40;;;;;;;3.91;100.00;99865.09;5091358;28;20048;-58
2023/12/27 02:16:49;;;;;;;0.50;0.50;;;;;;;3.71;100.00;99861.34;5094111;28;20116;-58
2023/12/27 02:19:19;;;;;;;0.40;0.40;;;;;;;3.43;100.00;99870.72;5076073;28;20048;-58
2023/12/27 02:21:46;;;;;;;0.50;0.50;;;;;;;3.26;100.00;99865.75;5095028;28;20120;-58
2023/12/27 02:24:13;;;;;;;0.52;0.52;;;;;;;3.27;100.00;99856.78;5063680;28;20040;-58
2023/12/27 02:26:41;;;;;;;0.57;0.57;;;;;;;3.27;100.00;99867.41;5095858;28;20075;-58
2023/12/27 02:29:08;;;;;;;0.45;0.45;;;;;;;3.24;100.00;99856.19;5097312;28;20040;-58
2023/12/27 02:31:36;;;;;;;0.50;0.50;;;;;;;3.20;100.00;99857.53;5098842;28;20509;-58
2023/12/27 02:34:03;;;;;;;0.60;0.60;;;;;;;3.23;100.00;99845.75;5094792;28;20043;-58
2023/12/27 02:36:31;;;;;;;0.47;0.47;;;;;;;3.27;100.00;99848.84;5084133;28;20050;-58
2023/12/27 02:38:58;;;;;;;0.52;0.52;;;;;;;3.19;100.00;99842.63;5094901;28;20077;-58
2023/12/27 02:41:25;;;;;;;0.40;0.40;;;;;;;3.21;100.00;99839.78;5079094;28;20149;-58
2023/12/27 02:43:53;;;;;;;0.60;0.60;;;;;;;3.29;100.00;99831.75;5082718;28;20044;-58
2023/12/27 02:46:20;;;;;;;0.50;0.50;;;;;;;3.32;100.00;99835.88;5098535;28;20130;-58
2023/12/27 02:48:47;;;;;;;0.47;0.47;;;;;;;3.25;100.00;99830.50;5087318;28;20043;-58
2023/12/27 02:51:14;;;;;;;0.40;0.40;;;;;;;3.48;100.00;99830.44;5078088;28;20075;-58
2023/12/27 02:53:41;;;;;;;0.40;0.40;;;;;;;3.74;100.00;99823.84;5094589;28;20597;-58
2023/12/27 02:56:09;;;;;;;0.60;0.60;;;;;;;3.61;100.00;99814.72;5081674;28;20184;-58
2023/12/27 02:58:39;;;;;;;0.55;0.55;;;;;;;3.60;100.00;99807.78;5098643;28;20040;-58
2023/12/27 03:01:07;;;;;;;0.60;0.60;;;;;;;3.56;100.00;99806.47;5096905;28;20494;-58
2023/12/27 03:03:34;;;;;;;0.30;0.30;;;;;;;3.57;100.00;99797.53;5092010;28;20819;-58
2023/12/27 03:06:01;;;;;;;0.60;0.60;;;;;;;3.52;100.00;99799.06;5096328;28;20931;-58
2023/12/27 03:08:28;;;;;;;0.55;0.55;;;;;;;3.43;100.00;99795.69;5097002;28;20044;-58
2023/12/27 03:10:56;;;;;;;0.55;0.55;;;;;;;3.25;100.00;99782.81;5091112;28;20128;-58
2023/12/27 03:13:23;;;;;;;0.50;0.50;;;;;;;3.26;100.00;99784.44;5071121;28;20054;-58
2023/12/27 03:15:50;;;;;;;0.50;0.50;;;;;;;3.28;100.00;99789.56;5094178;28;20177;-58
2023/12/27 03:18:19;;;;;;;0.40;0.40;;;;;;;3.20;100.00;99780.69;5093503;28;20071;-58
2023/12/27 03:20:46;;;;;;;0.50;0.50;;;;;;;3.18;100.00;99789.84;5072636;28;20046;-58
2023/12/27 03:23:13;;;;;;;0.32;0.32;;;;;;;3.21;100.00;99787.63;5094429;28;20134;-58
2023/12/27 03:25:40;;;;;;;0.50;0.50;;;;;;;3.24;100.00;99783.81;5098165;28;20108;-58
2023/12/27 03:28:08;;;;;;;0.50;0.50;;;;;;;3.23;100.00;99784.81;5076071;28;20048;-58
2023/12/27 03:30:35;;;;;;;0.57;0.57;;;;;;;3.13;100.00;99778.97;5079129;28;20435;-58
2023/12/27 03:33:02;;;;;;;0.50;0.50;;;;;;;3.09;100.00;99778.47;5076643;28;20047;-58
2023/12/27 03:35:30;;;;;;;0.50;0.50;;;;;;;3.05;100.00;99769.28;5089618;28;20218;-58
2023/12/27 03:37:57;;;;;;;0.60;0.60;;;;;;;3.05;100.00;99773.75;5098871;28;20187;-58
2023/12/27 03:40:24;;;;;;;0.50;0.50;;;;;;;3.00;100.00;99774.28;5081061;28;20128;-58
2023/12/27 03:42:53;;;;;;;0.50;0.50;;;;;;;2.98;100.00;99773.63;5093869;28;20040;-58
2023/12/27 03:45:19;;;;;;;0.50;0.50;;;;;;;2.98;100.00;99776.28;5089959;28;20040;-58
2023/12/27 03:47:48;;;;;;;0.50;0.50;;;;;;;3.00;100.00;99769.00;5095999;28;20131;-58
2023/12/27 03:50:15;;;;;;;0.60;0.60;;;;;;;3.00;100.00;99769.81;5095201;28;20046;-59
2023/12/27 03:52:44;;;;;;;0.50;0.50;;;;;;;3.04;100.00;99757.00;5098918;28;20051;-58
2023/12/27 03:55:11;;;;;;;0.60;0.60;;;;;;;3.03;100.00;99760.69;5078085;28;20751;-58
2023/12/27 03:57:38;;;;;;;0.50;0.50;;;;;;;3.02;100.00;99756.38;5096033;28;20146;-58
2023/12/27 04:00:06;;;;;;;0.50;0.50;;;;;;;3.06;100.00;99756.84;5085066;28;20525;-58
2023/12/27 04:02:36;;;;;;;0.50;0.50;;;;;;;2.98;100.00;99753.25;5093441;28;20044;-58
2023/12/27 04:05:04;;;;;;;0.50;0.50;;;;;;;2.92;100.00;99753.16;5098028;28;20539;-58
2023/12/27 04:07:31;;;;;;;0.65;0.65;;;;;;;2.88;100.00;99760.66;5093322;28;20096;-59
2023/12/27 04:09:59;;;;;;;0.60;0.60;;;;;;;2.90;100.00;99757.84;5083151;28;20154;-58
2023/12/27 04:12:26;;;;;;;0.40;0.40;;;;;;;2.83;100.00;99752.41;5093172;28;20793;-58
2023/12/27 04:14:53;;;;;;;0.50;0.50;;;;;;;2.88;100.00;99754.53;5092832;28;20131;-58
2023/12/27 04:17:20;;;;;;;0.50;0.50;;;;;;;2.92;100.00;99759.28;5063120;28;20067;-58
2023/12/27 04:19:47;;;;;;;0.50;0.50;;;;;;;2.86;100.00;99757.34;5095083;28;20503;-58
2023/12/27 04:22:14;;;;;;;0.57;0.57;;;;;;;2.76;100.00;99756.78;5096247;28;20083;-58
2023/12/27 04:24:42;;;;;;;0.50;0.50;;;;;;;2.86;100.00;99759.19;5074378;28;20502;-58
2023/12/27 04:27:11;;;;;;;0.50;0.50;;;;;;;2.96;100.00;99746.50;5086845;28;20409;-58
2023/12/27 04:29:38;;;;;;;0.50;0.50;;;;;;;3.04;100.00;99741.13;5098197;28;20440;-58
2023/12/27 04:32:06;;;;;;;0.50;0.50;;;;;;;3.07;100.00;99735.47;5098594;28;20062;-58
2023/12/27 04:34:34;;;;;;;0.50;0.50;;;;;;;3.16;100.00;99749.44;5072554;28;20040;-58
2023/12/27 04:37:01;;;;;;;0.60;0.60;;;;;;;3.19;100.00;99747.25;5096750;28;20040;-58
2023/12/27 04:39:28;;;;;;;0.40;0.40;;;;;;;3.18;100.00;99735.03;5083809;28;20045;-58
2023/12/27 04:41:54;;;;;;;0.52;0.52;;;;;;;3.20;100.00;99734.84;5093970;28;20109;-58
2023/12/27 04:44:22;;;;;;;0.40;0.40;;;;;;;3.21;100.00;99733.84;5066178;28;20047;-58
2023/12/27 04:46:49;;;;;;;0.50;0.50;;;;;;;3.09;100.00;99725.50;5094792;28;20397;-58
2023/12/27 04:49:16;;;;;;;0.47;0.47;;;;;;;3.07;100.00;99719.59;5071735;28;20046;-58
2023/12/27 04:51:45;;;;;;;0.50;0.50;;;;;;;3.11;100.00;99718.22;5080853;28;20130;-58
2023/12/27 04:54:12;;;;;;;0.60;0.60;;;;;;;3.19;100.00;99712.00;5092422;28;20073;-59
2023/12/27 04:56:39;;;;;;;0.50;0.50;;;;;;;3.20;100.00;99711.81;5090953;28;20035;-58
2023/12/27 04:59:06;;;;;;;0.40;0.40;;;;;;;3.22;100.00;99719.56;5078430;28;20054;-58
2023/12/27 05:01:34;;;;;;;0.45;0.45;;;;;;;3.10;100.00;99713.94;5079777;28;20135;-58
2023/12/27 05:04:01;;;;;;;0.40;0.40;;;;;;;3.15;100.00;99719.50;5072455;28;20134;-58
2023/12/27 05:06:28;;;;;;;0.47;0.47;;;;;;;3.14;100.00;99717.03;5075659;28;20040;-58
2023/12/27 05:08:55;;;;;;;0.50;0.50;;;;;;;3.13;100.00;99716.22;5094552;28;20039;-58
2023/12/27 05:11:23;;;;;;;0.55;0.55;;;;;;;3.07;100.00;99714.31;5092218;28;20127;-58
2023/12/27 05:13:50;;;;;;;0.50;0.50;;;;;;;3.06;100.00;99709.16;5098855;28;20777;-58
2023/12/27 05:16:17;;;;;;;0.40;0.40;;;;;;;3.03;100.00;99713.00;5077195;28;20142;-58
2023/12/27 05:18:44;;;;;;;0.40;0.40;;;;;;;3.08;100.00;99717.75;5090831;28;20047;-58
2023/12/27 05:21:12;;;;;;;0.57;0.57;;;;;;;3.11;100.00;99723.50;5092484;28;20066;-58
2023/12/27 05:23:39;;;;;;;0.60;0.60;;;;;;;3.15;100.00;99722.16;5087189;28;20044;-58
2023/12/27 05:26:06;;;;;;;0.40;0.40;;;;;;;3.21;100.00;99728.53;5099562;28;20031;-58
2023/12/27 05:28:33;;;;;;;0.40;0.40;;;;;;;3.28;100.00;99723.34;5094679;28;20080;-58
2023/12/27 05:31:00;;;;;;;0.50;0.50;;;;;;;3.24;100.00;99718.41;5093466;28;20100;-58
2023/12/27 05:33:27;;;;;;;0.40;0.40;;;;;;;3.32;100.00;99709.56;5089314;28;20050;-58
2023/12/27 05:35:56;;;;;;;0.50;0.50;;;;;;;3.20;100.00;99706.53;5088686;28;20040;-58
2023/12/27 05:38:23;;;;;;;0.50;0.50;;;;;;;3.25;100.00;99708.63;5093443;28;20078;-58
2023/12/27 05:40:50;;;;;;;0.50;0.50;;;;;;;3.23;100.00;99711.44;5096216;28;20229;-58
2023/12/27 05:43:17;;;;;;;0.40;0.40;;;;;;;3.37;100.00;99711.63;5093907;28;20523;-59
2023/12/27 05:45:43;;;;;;;0.50;0.50;;;;;;;3.48;100.00;99718.31;5071747;28;20134;-58
2023/12/27 05:48:10;;;;;;;0.60;0.60;;;;;;;3.54;100.00;99712.25;5062710;28;20047;-58
2023/12/27 05:50:37;;;;;;;0.45;0.45;;;;;;;3.62;100.00;99710.34;5092230;28;20735;-58
2023/12/27 05:53:05;;;;;;;0.50;0.50;;;;;;;3.65;100.00;99715.25;5094056;28;20142;-58
2023/12/27 05:55:33;;;;;;;0.40;0.40;;;;;;;3.68;100.00;99711.41;5088444;28;20046;-58
2023/12/27 05:58:00;;;;;;;0.38;0.38;;;;;;;3.67;100.00;99710.59;5086630;28;20051;-58
2023/12/27 06:00:27;;;;;;;0.35;0.35;;;;;;;3.65;100.00;99704.66;5094586;28;20104;-58
2023/12/27 06:02:54;;;;;;;0.43;0.43;;;;;;;3.68;100.00;99709.56;5081830;28;20045;-58
2023/12/27 06:05:22;;;;;;;0.60;0.60;;;;;;;3.63;100.00;99709.31;5084121;28;20052;-58
2023/12/27 06:07:49;;;;;;;0.60;0.60;;;;;;;3.61;100.00;99702.56;5091749;28;20047;-59
2023/12/27 06:10:18;;;;;;;0.50;0.50;;;;;;;3.62;100.00;99705.03;5072032;28;20478;-58
2023/12/27 06:12:45;;;;;;;0.50;0.50;;;;;;;3.64;100.00;99700.38;5091713;28;20466;-58
2023/12/27 06:15:12;;;;;;;0.40;0.40;;;;;;;3.63;100.00;99705.84;5094368;28;20047;-58
2023/12/27 06:17:39;;;;;;;0.47;0.47;;;;;;;3.65;100.00;99694.06;5090179;28;20485;-58
2023/12/27 06:20:08;;;;;;;0.40;0.40;;;;;;;3.72;100.00;99688.00;5090989;28;20039;-58
2023/12/27 06:22:35;;;;;;;0.50;0.50;;;;;;;3.76;100.00;99687.44;5091199;28;20355;-58
2023/12/27 06:25:03;;;;;;;0.60;0.60;;;;;;;3.68;100.00;99682.25;5093145;28;20059;-58
2023/12/27 06:27:32;;;;;;;0.40;0.40;;;;;;;3.74;100.00;99683.31;5090527;28;20044;-58
2023/12/27 06:30:01;;;;;;;0.50;0.50;;;;;;;3.76;100.00;99687.44;5092578;28;20047;-58
2023/12/27 06:32:28;;;;;;;0.50;0.50;;;;;;;3.79;100.00;99679.09;5092928;28;20503;-58
2023/12/27 06:34:55;;;;;;;0.50;0.50;;;;;;;3.83;100.00;99682.22;5092799;28;20047;-59
2023/12/27 06:37:22;;;;;;;0.57;0.57;;;;;;;3.90;100.00;99685.75;5095110;28;20071;-58
2023/12/27 06:39:49;;;;;;;0.40;0.40;;;;;;;3.85;100.00;99667.75;5096906;28;20138;-58
2023/12/27 06:42:16;;;;;;;0.40;0.40;;;;;;;3.89;100.00;99681.44;5067685;28;20051;-58
2023/12/27 06:44:44;;;;;;;0.60;0.60;;;;;;;3.95;100.00;99683.38;5077566;28;20458;-58
2023/12/27 06:47:11;;;;;;;0.40;0.40;;;;;;;3.97;100.00;99681.34;5093696;28;20165;-58
2023/12/27 06:49:37;;;;;;;0.45;0.45;;;;;;;3.95;100.00;99699.28;5073793;28;20573;-58
2023/12/27 06:52:05;;;;;;;0.30;0.30;;;;;;;3.93;100.00;99700.47;5078236;28;20055;-58
2023/12/27 06:54:32;;;;;;;0.50;0.50;;;;;;;3.90;100.00;99701.69;5091219;28;20524;-58
2023/12/27 06:56:59;;;;;;;0.47;0.47;;;;;;;3.82;100.00;99705.28;5094619;28;20067;-58
2023/12/27 06:59:27;;;;;;;0.50;0.50;;;;;;;3.77;100.00;99701.50;5100211;28;20047;-58
2023/12/27 07:01:55;;;;;;;0.40;0.40;;;;;;;3.72;100.00;99688.00;5078369;28;20125;-58
2023/12/27 07:04:22;;;;;;;0.47;0.47;;;;;;;3.73;100.00;99684.34;5096356;28;20528;-58
2023/12/27 07:06:49;;;;;;;0.43;0.43;;;;;;;3.71;100.00;99673.09;5099961;28;20050;-58
2023/12/27 07:09:16;;;;;;;0.40;0.40;;;;;;;3.72;100.00;99666.78;5097076;28;20040;-58
2023/12/27 07:11:43;;;;;;;0.30;0.30;;;;;;;3.83;100.00;99675.06;5094521;28;20054;-58
2023/12/27 07:14:10;;;;;;;0.52;0.52;;;;;;;3.77;100.00;99667.03;5097785;28;20182;-58
2023/12/27 07:16:38;;;;;;;0.70;0.70;;;;;;;3.94;100.00;99649.88;5094457;28;20051;-58
2023/12/27 07:19:08;;;;;;;0.50;0.50;;;;;;;4.11;100.00;99650.47;5089574;28;20047;-58
2023/12/27 07:21:35;;;;;;;0.50;0.50;;;;;;;4.22;100.00;99635.84;5096006;28;20177;-58
2023/12/27 07:24:02;;;;;;;0.50;0.50;;;;;;;4.52;100.00;99631.22;5077008;28;20035;-58
2023/12/27 07:26:29;;;;;;;0.40;0.40;;;;;;;4.81;100.00;99619.53;5093346;28;20093;-58
2023/12/27 07:28:56;;;;;;;0.40;0.40;;;;;;;4.32;100.00;99620.44;5101476;28;20043;-58
2023/12/27 07:31:24;;;;;;;0.40;0.40;;;;;;;4.68;100.00;99620.28;5093684;28;20150;-58
2023/12/27 07:33:51;;;;;;;0.50;0.50;;;;;;;4.53;100.00;99625.69;5084801;28;20463;-58
2023/12/27 07:36:20;;;;;;;0.40;0.40;;;;;;;4.12;100.00;99625.59;5097809;28;20158;-59
2023/12/27 07:38:47;;;;;;;0.40;0.40;;;;;;;4.06;100.00;99619.19;5072591;28;20401;-58
2023/12/27 07:41:14;;;;;;;0.43;0.43;;;;;;;4.05;100.00;99614.91;5093970;28;20126;-58
2023/12/27 07:43:42;;;;;;;0.47;0.47;;;;;;;4.01;100.00;99608.34;5093308;28;20039;-58
2023/12/27 07:46:09;;;;;;;0.50;0.50;;;;;;;4.00;100.00;99601.41;5099919;28;20051;-58
2023/12/27 07:48:36;;;;;;;0.50;0.50;;;;;;;3.97;100.00;99603.59;5099380;28;20039;-58
2023/12/27 07:51:04;;;;;;;0.50;0.50;;;;;;;4.00;100.00;99609.34;5077128;28;20138;-58
2023/12/27 07:53:33;;;;;;;0.60;0.60;;;;;;;3.95;100.00;99603.00;5091348;28;20612;-58
2023/12/27 07:56:00;;;;;;;0.50;0.50;;;;;;;3.99;100.00;99599.75;5092508;28;20047;-58
2023/12/27 07:58:27;;;;;;;0.40;0.40;;;;;;;3.98;100.00;99606.06;5083804;28;20048;-58
2023/12/27 08:00:54;;;;;;;0.40;0.40;;;;;;;4.04;100.00;99581.44;5093026;28;20040;-58
2023/12/27 08:03:21;;;;;;;0.50;0.50;;;;;;;4.10;100.00;99591.28;5088932;28;20051;-59
2023/12/27 08:05:48;;;;;;;0.40;0.40;;;;;;;4.15;100.00;99588.06;5087689;28;20049;-58
2023/12/27 08:08:15;;;;;;;0.40;0.40;;;;;;;4.14;100.00;99585.59;5094099;28;20075;-58
2023/12/27 08:10:44;;;;;;;0.40;0.40;;;;;;;4.24;100.00;99607.31;5090710;28;20093;-58
2023/12/27 08:13:11;;;;;;;0.40;0.40;;;;;;;4.29;100.00;99610.19;5076068;28;20050;-59
2023/12/27 08:15:38;;;;;;;0.50;0.50;;;;;;;4.27;100.00;99612.25;5099670;28;20044;-58
2023/12/27 08:18:07;;;;;;;0.45;0.45;;;;;;;4.19;100.00;99610.53;5097162;28;20124;-58
2023/12/27 08:20:38;;;;;;;0.40;0.40;;;;;;;4.36;100.00;99636.78;5090054;28;20845;-58
2023/12/27 08:23:06;;;;;;;0.50;0.50;;;;;;;4.33;100.00;99645.97;5087156;28;20050;-58
2023/12/27 08:25:34;;;;;;;0.40;0.40;;;;;;;4.46;100.00;99651.38;5076899;28;20044;-58
2023/12/27 08:28:04;;;;;;;0.40;0.40;;;;;;;4.44;100.00;99650.75;5090423;28;20036;-58
2023/12/27 08:30:31;;;;;;;0.45;0.45;;;;;;;4.51;100.00;99651.59;5093782;28;20478;-58
2023/12/27 08:32:59;;;;;;;0.47;0.47;;;;;;;4.70;100.00;99655.44;5098136;28;20377;-58
2023/12/27 08:35:27;;;;;;;0.30;0.30;;;;;;;4.93;100.00;99638.41;5074333;28;20039;-58
2023/12/27 08:37:54;;;;;;;0.40;0.40;;;;;;;5.28;100.00;99643.72;5096819;28;20138;-58
2023/12/27 08:40:22;;;;;;;0.38;0.38;;;;;;;5.62;100.00;99642.81;5094118;28;20131;-59
2023/12/27 08:42:49;;;;;;;0.43;0.43;;;;;;;6.10;100.00;99642.75;5097914;28;20035;-58
2023/12/27 08:45:17;;;;;;;0.40;0.40;;;;;;;6.46;100.00;99636.19;5093897;28;20036;-58
2023/12/27 08:47:44;;;;;;;0.32;0.32;;;;;;;6.62;100.00;99633.13;5080256;28;20565;-58
2023/12/27 08:50:12;;;;;;;0.35;0.35;;;;;;;6.72;100.00;99631.88;5092420;28;20040;-58
2023/12/27 08:52:39;;;;;;;0.32;0.32;;;;;;;6.77;100.00;99632.09;5097483;28;20669;-58
2023/12/27 08:55:08;;;;;;;0.30;0.30;;;;;;;6.87;100.00;99629.81;5093927;28;20058;-58
2023/12/27 08:57:36;;;;;;;0.40;0.40;;;;;;;6.81;100.00;99626.09;5092537;28;20415;-58
2023/12/27 09:00:03;;;;;;;0.32;0.32;;;;;;;6.80;100.00;99621.81;5091549;28;20044;-58
2023/12/27 09:02:31;;;;;;;0.30;0.30;;;;;;;6.79;100.00;99606.88;5090368;28;20040;-58
2023/12/27 09:04:58;;;;;;;0.30;0.30;;;;;;;6.86;100.00;99602.34;5091880;28;20037;-58
2023/12/27 09:07:25;;;;;;;0.30;0.30;;;;;;;6.83;100.00;99596.59;5077802;28;20116;-58
2023/12/27 09:09:52;;;;;;;0.35;0.35;;;;;;;6.93;100.00;99596.97;5094697;28;20056;-58
2023/12/27 09:12:20;;;;;;;0.40;0.40;;;;;;;6.91;100.00;99607.88;5088448;28;20839;-58
2023/12/27 09:14:47;;;;;;;0.30;0.30;;;;;;;6.93;100.00;99601.50;5089592;28;20044;-58
2023/12/27 09:17:15;;;;;;;0.30;0.30;;;;;;;6.99;100.00;99592.66;5099325;28;20036;-58
2023/12/27 09:19:44;;;;;;;0.40;0.40;;;;;;;7.09;100.00;99585.88;5090132;28;20061;-58
2023/12/27 09:22:11;;;;;;;0.30;0.30;;;;;;;6.98;100.00;99589.19;5084801;28;20527;-58
2023/12/27 09:24:38;;;;;;;0.40;0.40;;;;;;;6.95;100.00;99583.47;5097039;28;20044;-58
2023/12/27 09:27:05;;;;;;;0.38;0.38;;;;;;;7.12;100.00;99590.78;5075923;28;20122;-58
2023/12/27 09:29:33;;;;;;;0.38;0.38;;;;;;;7.12;100.00;99577.44;5093235;28;20117;-59
2023/12/27 09:32:01;;;;;;;0.30;0.30;;;;;;;7.09;100.00;99585.06;5093081;28;20039;-58
2023/12/27 09:34:28;;;;;;;0.30;0.30;;;;;;;7.12;100.00;99582.78;5089668;28;20051;-58
2023/12/27 09:36:57;;;;;;;0.30;0.30;;;;;;;7.15;100.00;99594.06;5087050;28;20232;-58
2023/12/27 09:39:25;;;;;;;0.30;0.30;;;;;;;7.06;100.00;99593.44;5086187;28;20056;-59
2023/12/27 09:41:52;;;;;;;0.30;0.30;;;;;;;7.08;100.00;99594.88;5090964;28;20794;-58
2023/12/27 09:44:19;;;;;;;0.40;0.40;;;;;;;7.13;100.00;99594.25;5068772;28;20503;-58
2023/12/27 09:46:47;;;;;;;0.40;0.40;;;;;;;7.12;100.00;99590.78;5091333;28;20545;-58
2023/12/27 09:49:15;;;;;;;0.50;0.50;;;;;;;7.09;100.00;99585.88;5085006;28;20039;-58
2023/12/27 09:51:42;;;;;;;0.30;0.30;;;;;;;7.14;100.00;99577.25;5088016;28;20052;-58
2023/12/27 09:54:10;;;;;;;0.30;0.30;;;;;;;7.03;100.00;99577.88;5083714;28;20040;-58
2023/12/27 09:56:37;;;;;;;0.40;0.40;;;;;;;7.03;100.00;99565.38;5090972;28;20050;-58
2023/12/27 09:59:06;;;;;;;0.30;0.30;;;;;;;7.10;100.00;99565.34;5093823;28;20039;-58
2023/12/27 10:01:35;;;;;;;0.30;0.30;;;;;;;7.10;100.00;99555.50;5087060;28;20040;-58
2023/12/27 10:04:04;;;;;;;0.22;0.22;;;;;;;7.02;100.00;99561.09;5084816;28;20259;-58
2023/12/27 10:06:35;;;;;;;0.30;0.30;;;;;;;6.99;100.00;99556.19;5092170;28;20125;-58
2023/12/27 10:09:02;;;;;;;0.30;0.30;;;;;;;7.10;100.00;99555.50;5072639;28;20097;-58
2023/12/27 10:11:30;;;;;;;0.30;0.30;;;;;;;7.17;100.00;99544.00;5092544;28;20048;-58
2023/12/27 10:13:57;;;;;;;0.30;0.30;;;;;;;7.09;100.00;99545.88;5091573;28;20123;-58
2023/12/27 10:16:24;;;;;;;0.30;0.30;;;;;;;7.11;100.00;99540.31;5088243;28;20648;-58
2023/12/27 10:18:51;;;;;;;0.30;0.30;;;;;;;7.19;100.00;99536.59;5094100;28;20052;-58
2023/12/27 10:21:18;;;;;;;0.20;0.20;;;;;;;7.07;100.00;99542.59;5076850;28;20150;-58
2023/12/27 10:23:45;;;;;;;0.30;0.30;;;;;;;7.10;100.00;99528.84;5090079;28;20145;-58
2023/12/27 10:26:13;;;;;;;0.30;0.30;;;;;;;7.16;100.00;99529.03;5096844;28;20067;-58
2023/12/27 10:28:42;;;;;;;0.40;0.40;;;;;;;7.16;100.00;99518.38;5079008;28;20051;-58
2023/12/27 10:31:09;;;;;;;0.30;0.30;;;;;;;7.12;100.00;99518.81;5094065;28;20039;-58
2023/12/27 10:33:41;;;;;;;0.40;0.40;;;;;;;7.17;100.00;99515.50;5086920;28;20277;-58
2023/12/27 10:36:08;;;;;;;0.28;0.28;;;;;;;7.21;100.00;99513.22;5096351;28;20039;-58
2023/12/27 10:38:35;;;;;;;0.30;0.30;;;;;;;7.25;100.00;99506.44;5079803;28;20039;-58
2023/12/27 10:41:03;;;;;;;0.20;0.20;;;;;;;7.15;100.00;99503.41;5092533;28;20043;-58
2023/12/27 10:43:30;;;;;;;0.20;0.20;;;;;;;7.24;100.00;99496.78;5094568;28;20241;-59
2023/12/27 10:45:59;;;;;;;0.30;0.30;;;;;;;7.03;100.00;99498.75;5083637;28;20602;-58
2023/12/27 10:48:27;;;;;;;0.38;0.38;;;;;;;7.17;100.00;99502.19;5097688;28;20055;-58
2023/12/27 10:50:54;;;;;;;0.30;0.30;;;;;;;7.22;100.00;99501.53;5088044;28;20441;-58
2023/12/27 10:53:21;;;;;;;0.20;0.20;;;;;;;7.20;100.00;99500.94;5094128;28;20522;-59
2023/12/27 10:55:49;;;;;;;0.30;0.30;;;;;;;7.22;100.00;99512.19;5094039;28;20043;-58
2023/12/27 10:58:18;;;;;;;0.30;0.30;;;;;;;7.25;100.00;99503.78;5096149;28;20064;-58
2023/12/27 11:00:46;;;;;;;0.20;0.20;;;;;;;7.23;100.00;99497.81;5094169;28;20101;-59
2023/12/27 11:03:14;;;;;;;0.30;0.30;;;;;;;7.35;100.00;99514.78;5095491;28;20155;-58
2023/12/27 11:05:41;;;;;;;0.30;0.30;;;;;;;7.38;100.00;99509.00;5092847;28;20055;-59
2023/12/27 11:08:10;;;;;;;0.20;0.20;;;;;;;7.35;100.00;99498.78;5092873;28;20451;-58
2023/12/27 11:10:37;;;;;;;0.20;0.20;;;;;;;7.50;100.00;99496.63;5085856;28;20051;-58
2023/12/27 11:13:05;;;;;;;0.30;0.30;;;;;;;7.67;100.00;99502.25;5081660;28;20119;-58
2023/12/27 11:15:32;;;;;;;0.30;0.30;;;;;;;7.67;100.00;99506.78;5092955;28;20039;-59
2023/12/27 11:18:00;;;;;;;0.28;0.28;;;;;;;7.66;100.00;99489.13;5092107;28;20134;-58
2023/12/27 11:20:29;;;;;;;0.30;0.30;;;;;;;7.74;100.00;99503.03;5095651;28;20044;-59
2023/12/27 11:22:57;;;;;;;0.20;0.20;;;;;;;7.67;100.00;99482.78;5097913;28;20040;-58
2023/12/27 11:25:24;;;;;;;0.30;0.30;;;;;;;7.80;100.00;99484.53;5087670;28;20043;-58
2023/12/27 11:27:52;;;;;;;0.30;0.30;;;;;;;7.76;100.00;99484.13;5093759;28;20048;-58
2023/12/27 11:30:19;;;;;;;0.30;0.30;;;;;;;7.71;100.00;99475.94;5087621;28;20047;-59
2023/12/27 11:32:46;;;;;;;0.30;0.30;;;;;;;7.86;100.00;99473.81;5081299;28;20377;-59
2023/12/27 11:35:24;;;;;;;0.32;0.32;;;;;;;7.90;100.00;99471.50;5098278;28;20042;-58